Time;durP1;ratioP1;P1;durP2;ratioP2;P2;SDS_P1;SDS_P2;PMS_P1;PMS_P2;Temp;Humidity;BMP_temperature;BMP_pressure;BME280_temperature;BME280_humidity;BME280_pressure;Samples;Min_cycle;Max_cycle;Signal;HPM_P1;HPM_P2
2022/07/10 00:00:21;;;;;;;6.22;1.40;;;;;;;12.19;83.12;102974.97;5053864;28;20043;-74
2022/07/10 00:02:46;;;;;;;4.40;1.65;;;;;;;12.17;83.41;102967.06;5053258;28;20043;-74
2022/07/10 00:05:12;;;;;;;2.95;1.40;;;;;;;12.17;83.19;102977.72;5052067;28;20124;-74
2022/07/10 00:07:37;;;;;;;6.90;1.33;;;;;;;12.17;83.21;102967.06;5053309;28;20037;-74
2022/07/10 00:10:04;;;;;;;2.65;1.30;;;;;;;12.19;82.63;102968.78;5051882;28;20533;-74
2022/07/10 00:12:29;;;;;;;7.85;1.33;;;;;;;12.16;82.57;102968.00;5053164;28;20116;-74
2022/07/10 00:14:54;;;;;;;2.97;1.23;;;;;;;12.13;83.33;102964.69;5051626;28;20385;-74
2022/07/10 00:17:20;;;;;;;5.55;1.20;;;;;;;12.09;83.59;102964.03;5051782;28;20147;-74
2022/07/10 00:19:45;;;;;;;6.50;1.38;;;;;;;12.05;83.86;102961.66;5053306;28;20037;-74
2022/07/10 00:22:11;;;;;;;2.85;1.27;;;;;;;12.03;84.00;102966.22;5053358;28;20033;-74
2022/07/10 00:24:36;;;;;;;4.80;1.55;;;;;;;12.01;84.22;102962.78;5053349;28;20041;-74
2022/07/10 00:27:02;;;;;;;6.35;1.58;;;;;;;11.97;84.55;102963.00;5053057;28;20478;-73
2022/07/10 00:29:27;;;;;;;6.03;1.27;;;;;;;11.96;84.37;102963.94;5052845;28;20358;-74
2022/07/10 00:31:52;;;;;;;5.22;1.52;;;;;;;11.92;84.07;102969.53;5052879;28;20029;-73
2022/07/10 00:34:18;;;;;;;3.72;1.38;;;;;;;11.88;84.71;102955.50;5052859;28;20140;-73
2022/07/10 00:36:43;;;;;;;3.30;1.40;;;;;;;11.81;85.31;102949.72;5052636;28;20033;-73
2022/07/10 00:39:09;;;;;;;4.00;1.40;;;;;;;11.77;85.50;102947.34;5051573;28;20033;-74
2022/07/10 00:41:35;;;;;;;4.38;1.20;;;;;;;11.74;85.95;102947.53;5052880;28;20033;-74
2022/07/10 00:44:01;;;;;;;8.90;1.58;;;;;;;11.72;86.37;102944.97;5052573;28;20070;-73
2022/07/10 00:46:28;;;;;;;5.88;1.58;;;;;;;11.74;86.41;102950.19;5052756;28;20037;-74
2022/07/10 00:48:54;;;;;;;3.53;1.27;;;;;;;11.74;86.66;102951.03;5052963;28;20202;-73
2022/07/10 00:51:24;;;;;;;10.55;1.52;;;;;;;11.72;86.71;102944.97;5052549;28;20469;-74
2022/07/10 00:53:50;;;;;;;5.80;1.77;;;;;;;11.71;86.70;102942.38;5052273;28;20037;-74
2022/07/10 00:56:17;;;;;;;5.63;1.30;;;;;;;11.68;86.84;102946.09;5052479;28;20116;-74
2022/07/10 00:58:45;;;;;;;5.32;1.52;;;;;;;11.67;87.11;102949.69;5050990;28;20127;-74
2022/07/10 01:01:10;;;;;;;8.45;1.75;;;;;;;11.68;87.43;102947.91;5052816;28;20025;-74
2022/07/10 01:03:36;;;;;;;4.85;1.33;;;;;;;11.63;87.76;102949.03;5052776;28;20079;-75
2022/07/10 01:06:01;;;;;;;7.05;1.40;;;;;;;11.60;87.42;102948.38;5051412;28;20033;-73
2022/07/10 01:08:27;;;;;;;7.45;1.48;;;;;;;11.55;88.10;102950.47;5052864;28;20037;-74
2022/07/10 01:10:52;;;;;;;6.18;1.23;;;;;;;11.55;88.66;102937.97;5052361;28;20102;-73
2022/07/10 01:13:18;;;;;;;6.38;1.50;;;;;;;11.54;88.62;102943.41;5051735;28;20484;-74
2022/07/10 01:15:45;;;;;;;4.28;1.73;;;;;;;11.50;89.09;102934.75;5050713;28;20139;-74
2022/07/10 01:18:10;;;;;;;5.75;1.48;;;;;;;11.48;89.45;102936.66;5052039;28;20029;-74
2022/07/10 01:20:36;;;;;;;5.05;1.40;;;;;;;11.42;89.04;102927.22;5052157;28;20166;-73
2022/07/10 01:23:01;;;;;;;4.13;1.50;;;;;;;11.41;89.80;102930.84;5051993;28;20086;-74
2022/07/10 01:25:27;;;;;;;7.38;2.03;;;;;;;11.37;90.46;102923.97;5052132;28;20029;-74
2022/07/10 01:27:53;;;;;;;7.53;1.80;;;;;;;11.36;90.83;102932.06;5050870;28;20037;-73
2022/07/10 01:30:20;;;;;;;4.88;1.52;;;;;;;11.33;91.48;102922.47;5052037;28;20040;-74
2022/07/10 01:32:46;;;;;;;4.40;1.20;;;;;;;11.31;91.45;102916.34;5051889;28;20029;-75
2022/07/10 01:35:11;;;;;;;6.88;2.00;;;;;;;11.31;92.13;102912.84;5052097;28;20453;-74
2022/07/10 01:37:38;;;;;;;6.55;1.60;;;;;;;11.30;92.34;102914.66;5051841;28;20088;-73
2022/07/10 01:40:04;;;;;;;4.18;1.33;;;;;;;11.30;92.55;102914.66;5051534;28;20033;-73
2022/07/10 01:42:29;;;;;;;4.63;1.63;;;;;;;11.27;92.64;102913.03;5051521;28;20033;-74
2022/07/10 01:44:55;;;;;;;5.82;1.50;;;;;;;11.24;92.84;102912.34;5051356;28;20053;-73
2022/07/10 01:47:24;;;;;;;4.75;1.38;;;;;;;11.25;93.29;102922.06;5051090;28;20477;-74
2022/07/10 01:49:50;;;;;;;9.85;1.80;;;;;;;11.28;93.32;102912.06;5051335;28;20389;-73
2022/07/10 01:52:15;;;;;;;6.68;1.83;;;;;;;11.29;92.90;102918.25;5050998;28;20063;-73
2022/07/10 01:54:41;;;;;;;5.28;1.83;;;;;;;11.28;93.47;102917.38;5050948;28;20449;-74
2022/07/10 01:57:06;;;;;;;3.55;1.50;;;;;;;11.29;93.89;102916.44;5051453;28;20039;-73
2022/07/10 01:59:31;;;;;;;6.80;1.60;;;;;;;11.31;93.89;102907.50;5051507;28;20033;-73
2022/07/10 02:01:57;;;;;;;6.57;1.83;;;;;;;11.34;93.96;102905.50;5051253;28;20039;-74
2022/07/10 02:07:10;;;;;;;7.35;1.60;;;;;;;11.36;93.63;102913.41;5051194;28;20052;-74
2022/07/10 02:09:36;;;;;;;6.15;1.77;;;;;;;11.35;94.23;102912.56;5051486;28;20033;-74
2022/07/10 02:12:01;;;;;;;3.15;1.40;;;;;;;11.38;94.39;102914.19;5050784;28;20102;-74
2022/07/10 02:14:27;;;;;;;3.10;1.52;;;;;;;11.38;95.00;102901.69;5050955;28;20029;-74
2022/07/10 02:16:53;;;;;;;4.68;1.48;;;;;;;11.37;94.78;102889.31;5051129;28;20096;-74
2022/07/10 02:19:18;;;;;;;5.35;1.73;;;;;;;11.36;94.25;102889.41;5050985;28;20037;-74
2022/07/10 02:21:43;;;;;;;9.13;1.75;;;;;;;11.32;95.17;102890.56;5049610;28;20029;-75
2022/07/10 02:24:09;;;;;;;2.35;1.25;;;;;;;11.29;95.31;102904.94;5050899;28;20134;-73
2022/07/10 02:26:34;;;;;;;2.60;1.35;;;;;;;11.29;95.89;102913.78;5051530;28;20037;-74
2022/07/10 02:28:59;;;;;;;4.78;1.30;;;;;;;11.32;95.97;102910.09;5051181;28;20029;-73
2022/07/10 02:31:25;;;;;;;3.80;1.17;;;;;;;11.36;95.98;102910.75;5050983;28;20037;-74
2022/07/10 02:33:51;;;;;;;7.45;1.63;;;;;;;11.40;96.33;102909.59;5052294;28;20112;-74
2022/07/10 02:36:16;;;;;;;4.32;1.42;;;;;;;11.41;96.37;102914.00;5054882;28;20339;-74
2022/07/10 02:38:41;;;;;;;6.15;1.80;;;;;;;11.43;96.29;102917.41;5055417;28;20110;-74
2022/07/10 02:41:07;;;;;;;7.20;1.60;;;;;;;11.44;96.67;102919.97;5055031;28;20454;-74
2022/07/10 02:43:32;;;;;;;4.05;1.58;;;;;;;11.52;96.97;102910.66;5054656;28;20094;-73
2022/07/10 02:45:58;;;;;;;10.20;1.75;;;;;;;11.61;96.97;102910.97;5054451;28;20104;-73
2022/07/10 02:48:23;;;;;;;7.35;1.55;;;;;;;11.69;96.68;102910.47;5055018;28;20129;-74
2022/07/10 02:50:48;;;;;;;6.55;1.60;;;;;;;11.77;96.21;102912.66;5055202;28;20142;-74
2022/07/10 02:53:14;;;;;;;8.52;1.52;;;;;;;11.82;95.62;102911.44;5054739;28;20372;-73
2022/07/10 02:55:39;;;;;;;4.35;1.60;;;;;;;11.88;95.57;102909.31;5054724;28;20028;-74
2022/07/10 02:58:04;;;;;;;2.83;1.45;;;;;;;11.91;95.61;102894.00;5054582;28;20029;-74
2022/07/10 03:00:30;;;;;;;7.18;1.60;;;;;;;11.97;95.30;102898.09;5054944;28;20513;-73
2022/07/10 03:02:56;;;;;;;8.02;1.63;;;;;;;12.04;95.42;102896.75;5054744;28;20453;-74
2022/07/10 03:05:22;;;;;;;4.82;1.42;;;;;;;12.10;95.22;102884.81;5054721;28;20087;-74
2022/07/10 03:07:48;;;;;;;9.55;1.77;;;;;;;12.17;94.52;102891.47;5054404;28;20120;-74
2022/07/10 03:10:13;;;;;;;7.40;1.67;;;;;;;12.24;94.36;102884.78;5054879;28;20123;-74
2022/07/10 03:12:38;;;;;;;6.13;1.30;;;;;;;12.29;93.81;102877.31;5054537;28;20369;-73
2022/07/10 03:15:07;;;;;;;5.70;2.00;;;;;;;12.29;93.75;102877.31;5053970;28;20562;-74
2022/07/10 03:17:32;;;;;;;5.10;1.30;;;;;;;12.29;93.65;102880.00;5054571;28;20126;-74
2022/07/10 03:19:58;;;;;;;5.25;1.38;;;;;;;12.28;93.84;102885.44;5054459;28;20525;-74
2022/07/10 03:22:23;;;;;;;4.15;1.50;;;;;;;12.24;94.13;102876.78;5054514;28;20033;-74
2022/07/10 03:24:48;;;;;;;8.93;1.48;;;;;;;12.22;94.21;102883.16;5054544;28;20032;-74
2022/07/10 03:27:14;;;;;;;3.83;1.42;;;;;;;12.21;94.72;102882.31;5054384;28;20033;-74
2022/07/10 03:29:40;;;;;;;6.57;1.60;;;;;;;12.28;94.99;102875.59;5054125;28;20033;-74
2022/07/10 03:32:06;;;;;;;7.80;1.92;;;;;;;12.37;95.04;102868.81;5053941;28;20329;-74
2022/07/10 03:34:33;;;;;;;7.95;1.52;;;;;;;12.47;94.56;102869.91;5053882;28;20036;-74
2022/07/10 03:37:00;;;;;;;9.02;1.42;;;;;;;12.56;94.07;102871.13;5054570;28;20060;-74
2022/07/10 03:39:25;;;;;;;7.50;1.90;;;;;;;12.66;93.69;102864.22;5053716;28;20129;-74
2022/07/10 03:41:50;;;;;;;9.25;1.88;;;;;;;12.75;93.06;102867.19;5053714;28;20029;-74
2022/07/10 03:44:16;;;;;;;7.15;1.85;;;;;;;12.80;92.41;102867.75;5053355;28;20088;-74
2022/07/10 03:46:41;;;;;;;6.53;1.52;;;;;;;12.86;92.32;102870.84;5053927;28;20162;-74
2022/07/10 03:49:07;;;;;;;7.75;1.85;;;;;;;12.92;92.07;102868.75;5053505;28;20363;-74
2022/07/10 03:51:32;;;;;;;6.68;1.60;;;;;;;12.98;91.27;102862.97;5053534;28;20452;-74
2022/07/10 03:53:57;;;;;;;10.63;1.77;;;;;;;13.05;90.76;102875.78;5053671;28;20468;-74
2022/07/10 03:59:06;;;;;;;6.55;1.50;;;;;;;13.19;90.82;102865.97;5053816;28;20358;-74
2022/07/10 04:01:32;;;;;;;8.25;1.40;;;;;;;13.23;89.83;102868.31;5053385;28;20025;-74
2022/07/10 04:03:57;;;;;;;4.97;1.35;;;;;;;13.29;90.37;102863.53;5053399;28;20434;-74
2022/07/10 04:06:22;;;;;;;9.73;2.00;;;;;;;13.32;89.82;102860.63;5053143;28;20130;-74
2022/07/10 04:08:48;;;;;;;4.20;1.30;;;;;;;13.37;89.43;102858.50;5053264;28;20040;-75
2022/07/10 04:11:13;;;;;;;6.82;1.65;;;;;;;13.40;89.81;102859.16;5053303;28;20143;-74
2022/07/10 04:13:38;;;;;;;4.10;1.45;;;;;;;13.46;89.00;102855.19;5053414;28;20059;-75
2022/07/10 04:16:04;;;;;;;7.75;1.75;;;;;;;13.49;89.19;102852.28;5053025;28;20116;-74
2022/07/10 04:18:29;;;;;;;8.52;1.50;;;;;;;13.55;88.98;102853.69;5053218;28;20040;-74
2022/07/10 04:20:55;;;;;;;5.28;1.92;;;;;;;13.60;88.28;102858.69;5052605;28;20094;-75
2022/07/10 04:23:20;;;;;;;11.32;2.03;;;;;;;13.65;87.68;102857.41;5053119;28;20033;-74
2022/07/10 04:25:45;;;;;;;9.10;1.70;;;;;;;13.68;87.59;102862.53;5053137;28;20052;-75
2022/07/10 04:28:11;;;;;;;7.15;1.80;;;;;;;13.74;87.83;102861.25;5052765;28;20047;-74
2022/07/10 04:30:36;;;;;;;6.63;1.58;;;;;;;13.78;87.39;102864.53;5052872;28;20116;-75
2022/07/10 04:33:01;;;;;;;5.70;1.52;;;;;;;13.83;87.30;102857.88;5052730;28;20043;-76
2022/07/10 04:35:27;;;;;;;5.88;1.48;;;;;;;13.87;86.94;102855.88;5053091;28;20028;-74
2022/07/10 04:37:52;;;;;;;6.45;1.50;;;;;;;13.92;86.46;102867.06;5051727;28;20025;-75
2022/07/10 04:40:17;;;;;;;7.40;1.67;;;;;;;13.96;86.86;102871.25;5052844;28;20080;-74
2022/07/10 04:42:43;;;;;;;5.75;1.90;;;;;;;14.01;86.26;102874.44;5052996;28;20048;-74
2022/07/10 04:45:08;;;;;;;10.90;1.75;;;;;;;14.06;86.28;102871.41;5052983;28;20060;-74
2022/07/10 04:47:34;;;;;;;3.35;1.30;;;;;;;14.11;86.01;102870.13;5052771;28;20036;-74
2022/07/10 04:49:59;;;;;;;8.73;1.50;;;;;;;14.16;86.01;102876.97;5052698;28;20492;-75
2022/07/10 04:52:24;;;;;;;10.35;1.83;;;;;;;14.22;85.76;102882.69;5052688;28;20033;-75
2022/07/10 04:54:50;;;;;;;9.98;1.70;;;;;;;14.27;85.65;102871.66;5052813;28;20053;-74
2022/07/10 04:57:15;;;;;;;6.85;1.75;;;;;;;14.32;85.71;102880.22;5052571;28;20035;-74
2022/07/10 04:59:41;;;;;;;10.10;1.60;;;;;;;14.39;85.24;102869.88;5052670;28;20060;-74
2022/07/10 05:02:08;;;;;;;8.88;1.70;;;;;;;14.45;84.43;102874.78;5052901;28;20029;-75
2022/07/10 05:04:33;;;;;;;4.97;1.33;;;;;;;14.50;83.79;102877.13;5052341;28;20029;-74
2022/07/10 05:06:58;;;;;;;6.53;1.45;;;;;;;14.52;83.62;102870.66;5052682;28;20082;-74
2022/07/10 05:09:24;;;;;;;5.55;1.40;;;;;;;14.58;83.30;102877.41;5052370;28;20040;-74
2022/07/10 05:11:49;;;;;;;6.18;1.85;;;;;;;14.64;82.99;102879.63;5052537;28;20032;-74
2022/07/10 05:14:16;;;;;;;3.53;1.25;;;;;;;14.69;82.77;102885.53;5052321;28;20074;-74
2022/07/10 05:16:41;;;;;;;9.38;1.80;;;;;;;14.72;82.03;102884.41;5052158;28;20453;-74
2022/07/10 05:19:06;;;;;;;5.45;1.70;;;;;;;14.78;82.74;102887.50;5052651;28;20040;-74
2022/07/10 05:21:32;;;;;;;2.60;1.20;;;;;;;14.82;81.89;102882.75;5052235;28;20130;-74
2022/07/10 05:23:57;;;;;;;3.95;1.20;;;;;;;14.89;81.92;102877.78;5050822;28;20044;-74
2022/07/10 05:26:22;;;;;;;4.40;1.30;;;;;;;14.95;81.59;102880.81;5051713;28;20029;-74
2022/07/10 05:28:48;;;;;;;8.30;1.63;;;;;;;15.04;81.44;102876.59;5052110;28;20076;-75
2022/07/10 05:31:14;;;;;;;5.05;1.52;;;;;;;15.10;81.58;102875.25;5051907;28;20033;-75
2022/07/10 05:33:40;;;;;;;5.03;1.45;;;;;;;15.20;81.29;102876.25;5052200;28;20373;-74
2022/07/10 05:36:06;;;;;;;3.95;1.42;;;;;;;15.27;80.72;102864.06;5050486;28;20129;-75
2022/07/10 05:38:32;;;;;;;3.70;1.40;;;;;;;15.34;80.84;102867.97;5051986;28;20465;-74
2022/07/10 05:40:57;;;;;;;7.03;1.40;;;;;;;15.39;79.87;102873.00;5051915;28;20037;-75
2022/07/10 05:43:22;;;;;;;3.35;1.25;;;;;;;15.45;79.45;102871.63;5050425;28;20120;-74
2022/07/10 05:45:47;;;;;;;4.65;1.35;;;;;;;15.50;79.57;102872.97;5050052;28;20129;-75
2022/07/10 05:48:13;;;;;;;9.15;3.15;;;;;;;15.55;78.75;102869.06;5051754;28;20065;-75
2022/07/10 05:50:38;;;;;;;4.80;1.60;;;;;;;15.61;78.89;102872.09;5051644;28;20448;-75
2022/07/10 05:53:04;;;;;;;4.72;1.38;;;;;;;15.64;77.69;102873.69;5051815;28;20044;-75
2022/07/10 05:55:29;;;;;;;6.40;1.60;;;;;;;15.64;78.15;102877.22;5051561;28;20060;-75
2022/07/10 05:57:55;;;;;;;7.00;1.73;;;;;;;15.68;77.44;102880.53;5051753;28;20087;-75
2022/07/10 06:00:20;;;;;;;3.58;1.23;;;;;;;15.72;77.96;102878.44;5052359;28;20541;-75
2022/07/10 06:02:46;;;;;;;5.85;1.88;;;;;;;15.74;77.44;102876.50;5051722;28;20029;-75
2022/07/10 06:05:11;;;;;;;6.32;1.70;;;;;;;15.80;76.76;102868.84;5052034;28;20483;-75
2022/07/10 06:07:36;;;;;;;4.63;1.40;;;;;;;15.91;77.24;102864.44;5049935;28;20175;-75
2022/07/10 06:10:04;;;;;;;3.53;1.25;;;;;;;15.96;76.93;102864.91;5051364;28;20036;-76
2022/07/10 06:12:29;;;;;;;4.63;1.40;;;;;;;16.06;76.85;102859.63;5051683;28;20040;-76
2022/07/10 06:14:55;;;;;;;5.25;1.35;;;;;;;16.11;76.14;102869.03;5051301;28;20039;-75
2022/07/10 06:17:20;;;;;;;4.90;1.27;;;;;;;16.24;77.06;102859.94;5051862;28;20090;-76
2022/07/10 06:19:45;;;;;;;4.53;1.50;;;;;;;16.35;76.29;102863.44;5051733;28;20056;-75
2022/07/10 06:24:55;;;;;;;4.32;1.50;;;;;;;16.50;75.25;102861.31;5050193;28;20095;-75
2022/07/10 06:27:20;;;;;;;6.63;1.52;;;;;;;16.62;75.67;102861.28;5051325;28;20469;-75
2022/07/10 06:29:46;;;;;;;6.90;1.67;;;;;;;16.68;75.30;102861.59;5051314;28;20083;-75
2022/07/10 06:32:11;;;;;;;2.65;1.20;;;;;;;16.74;74.14;102862.91;5051369;28;20068;-74
2022/07/10 06:34:36;;;;;;;4.20;1.70;;;;;;;16.75;74.40;102854.72;5050845;28;20438;-74
2022/07/10 06:37:02;;;;;;;3.55;1.30;;;;;;;16.79;74.41;102857.97;5051024;28;20033;-74
2022/07/10 06:39:33;;;;;;;3.70;1.40;;;;;;;16.86;73.79;102856.47;5051351;28;20474;-75
2022/07/10 06:42:00;;;;;;;10.65;2.08;;;;;;;17.01;72.91;102858.88;5051784;28;20098;-76
2022/07/10 06:44:25;;;;;;;5.28;1.48;;;;;;;17.10;73.30;102869.66;5050806;28;20119;-75
2022/07/10 06:49:40;;;;;;;2.22;1.15;;;;;;;17.32;73.11;102861.59;5041240;28;20047;-76
2022/07/10 06:52:06;;;;;;;3.20;1.45;;;;;;;17.37;72.04;102862.03;5051854;28;20078;-76
2022/07/10 06:54:32;;;;;;;7.38;1.60;;;;;;;17.37;72.34;102857.47;5051559;28;20116;-76
2022/07/10 06:56:57;;;;;;;4.95;1.52;;;;;;;17.40;71.75;102861.75;5051885;28;20037;-75
2022/07/10 06:59:23;;;;;;;7.70;1.30;;;;;;;17.35;71.21;102861.31;5051740;28;20153;-76
2022/07/10 07:01:48;;;;;;;3.92;1.45;;;;;;;17.30;71.56;102863.53;5050656;28;20033;-76
2022/07/10 07:04:14;;;;;;;6.50;1.58;;;;;;;17.27;71.35;102876.28;5051888;28;20516;-76
2022/07/10 07:06:39;;;;;;;4.68;1.20;;;;;;;17.33;71.18;102874.91;5051554;28;20476;-75
2022/07/10 07:09:05;;;;;;;3.83;1.20;;;;;;;17.38;70.73;102882.56;5051228;28;20029;-76
2022/07/10 07:11:30;;;;;;;3.08;1.30;;;;;;;17.53;70.27;102877.69;5051638;28;20044;-75
2022/07/10 07:13:56;;;;;;;3.95;1.30;;;;;;;17.61;69.74;102875.16;5051319;28;20033;-76
2022/07/10 07:16:27;;;;;;;4.15;1.33;;;;;;;17.74;68.77;102873.06;5051177;28;20488;-76
2022/07/10 07:18:55;;;;;;;7.68;1.65;;;;;;;17.91;68.52;102876.97;5051503;28;20043;-77
2022/07/10 07:24:05;;;;;;;3.72;1.30;;;;;;;18.04;67.75;102870.47;5055093;28;20052;-77
2022/07/10 07:26:30;;;;;;;8.07;1.50;;;;;;;18.00;68.34;102875.28;5054775;28;20472;-77
2022/07/10 07:28:55;;;;;;;4.85;1.90;;;;;;;17.98;68.89;102874.56;5054898;28;20037;-76
2022/07/10 07:31:21;;;;;;;3.35;1.50;;;;;;;18.03;68.04;102866.91;5055241;28;20116;-77
2022/07/10 07:33:47;;;;;;;4.30;1.38;;;;;;;18.08;67.32;102869.22;5054482;28;20102;-76
2022/07/10 07:36:12;;;;;;;4.70;1.20;;;;;;;18.15;68.28;102875.72;5055262;28;20040;-76
2022/07/10 07:38:37;;;;;;;5.65;1.40;;;;;;;18.36;66.42;102870.22;5054809;28;20029;-76
2022/07/10 07:41:03;;;;;;;4.95;1.27;;;;;;;18.58;67.21;102873.63;5053516;28;20107;-76
2022/07/10 07:43:28;;;;;;;3.28;1.30;;;;;;;18.70;66.36;102871.63;5054904;28;20049;-75
2022/07/10 07:45:54;;;;;;;5.63;1.48;;;;;;;18.82;65.64;102876.75;5054796;28;20084;-77
2022/07/10 07:48:19;;;;;;;4.68;1.25;;;;;;;18.80;65.19;102881.41;5053567;28;20112;-81
2022/07/10 07:50:44;;;;;;;3.95;1.48;;;;;;;18.69;64.80;102881.59;5054791;28;20071;-80
2022/07/10 07:53:10;;;;;;;3.13;1.23;;;;;;;18.66;65.49;102885.41;5054607;28;20136;-81
2022/07/10 07:55:35;;;;;;;4.28;1.20;;;;;;;18.71;64.34;102876.88;5052834;28;20128;-79
2022/07/10 07:58:02;;;;;;;6.63;1.20;;;;;;;18.84;64.33;102882.84;5054121;28;20120;-85
2022/07/10 08:00:28;;;;;;;5.00;1.05;;;;;;;18.89;63.41;102884.28;5054540;28;20458;-80
2022/07/10 08:02:55;;;;;;;4.53;1.73;;;;;;;18.86;64.92;102877.31;5053569;28;20396;-81
2022/07/10 08:05:23;;;;;;;2.75;1.10;;;;;;;18.76;63.04;102877.28;5054184;28;20068;-79
2022/07/10 08:07:53;;;;;;;5.57;1.23;;;;;;;18.74;63.54;102873.91;5053970;28;20033;-79
2022/07/10 08:10:21;;;;;;;4.40;1.20;;;;;;;18.89;64.21;102878.88;5054051;28;20033;-82
2022/07/10 08:12:47;;;;;;;5.63;1.38;;;;;;;19.08;63.73;102876.16;5052217;28;20428;-79
2022/07/10 08:15:15;;;;;;;7.60;1.42;;;;;;;19.42;63.61;102880.97;5053823;28;20033;-78
2022/07/10 08:17:40;;;;;;;6.57;1.55;;;;;;;19.75;62.25;102878.72;5053727;28;20029;-81
2022/07/10 08:20:08;;;;;;;3.00;1.20;;;;;;;20.04;61.04;102875.03;5054421;28;20025;-77
2022/07/10 08:22:33;;;;;;;4.43;1.75;;;;;;;20.39;60.14;102871.50;5054230;28;20055;-78
2022/07/10 08:24:59;;;;;;;3.55;1.10;;;;;;;20.40;58.97;102877.75;5054057;28;20116;-78
2022/07/10 08:27:24;;;;;;;3.15;1.10;;;;;;;20.41;56.81;102879.44;5054071;28;20032;-81
2022/07/10 08:29:50;;;;;;;3.05;1.10;;;;;;;20.42;58.47;102873.00;5053856;28;20408;-78
2022/07/10 08:32:15;;;;;;;4.32;1.10;;;;;;;20.60;56.87;102873.88;5053350;28;20350;-77
2022/07/10 08:34:41;;;;;;;6.45;1.20;;;;;;;20.66;57.27;102869.72;5054051;28;20111;-75
2022/07/10 08:37:06;;;;;;;3.25;1.08;;;;;;;20.73;57.31;102878.03;5053794;28;20025;-76
2022/07/10 08:39:33;;;;;;;3.97;1.25;;;;;;;20.62;56.87;102871.00;5053624;28;20438;-76
2022/07/10 08:41:59;;;;;;;5.93;1.70;;;;;;;20.34;55.95;102879.19;5053347;28;20029;-76
2022/07/10 08:44:24;;;;;;;4.93;1.48;;;;;;;20.32;57.58;102883.06;5053206;28;20067;-76
2022/07/10 08:46:50;;;;;;;2.83;1.38;;;;;;;20.14;58.44;102881.22;5053526;28;20362;-76
2022/07/10 08:49:17;;;;;;;3.53;1.20;;;;;;;19.98;57.27;102881.88;5053809;28;20055;-76
2022/07/10 08:52:02;;;;;;;3.25;1.50;;;;;;;19.78;58.68;102886.56;5053432;28;20116;-76
2022/07/10 08:54:29;;;;;;;6.70;1.30;;;;;;;19.74;58.39;102868.91;5053355;28;20104;-77
2022/07/10 08:57:00;;;;;;;1.92;0.98;;;;;;;19.59;58.35;102876.66;5053187;28;20087;-76
2022/07/10 08:59:26;;;;;;;3.15;1.13;;;;;;;19.36;59.29;102868.09;5053406;28;20025;-75
2022/07/10 09:01:53;;;;;;;4.97;1.80;;;;;;;19.33;60.47;102861.16;5053169;28;20082;-76
2022/07/10 09:04:21;;;;;;;5.47;1.60;;;;;;;19.47;59.92;102869.78;5053186;28;20032;-75
2022/07/10 09:06:47;;;;;;;2.33;1.17;;;;;;;19.56;59.77;102871.56;5053121;28;20112;-75
2022/07/10 09:09:13;;;;;;;6.72;1.42;;;;;;;19.65;57.90;102864.44;5051852;28;20069;-77
2022/07/10 09:11:42;;;;;;;3.30;1.35;;;;;;;19.79;57.21;102866.63;5052930;28;20032;-76
2022/07/10 09:14:11;;;;;;;3.95;1.60;;;;;;;19.76;56.48;102864.19;5051558;28;20139;-76
2022/07/10 09:16:39;;;;;;;3.03;1.45;;;;;;;19.66;56.07;102861.56;5052831;28;20219;-76
2022/07/10 09:19:34;;;;;;;2.92;1.23;;;;;;;19.78;56.74;102864.94;5052591;28;20571;-84
2022/07/10 09:22:11;;;;;;;3.80;1.30;;;;;;;19.97;56.54;102861.25;5043372;28;20053;-84
2022/07/10 09:24:42;;;;;;;4.07;1.20;;;;;;;20.05;54.23;102853.25;5053300;28;20032;-85
2022/07/10 09:27:08;;;;;;;;;;;;;;;20.07;54.87;102859.34;5053303;28;20025;-81
2022/07/10 09:29:46;;;;;;;2.85;1.55;;;;;;;20.06;54.22;102863.06;5052775;28;19920;-79
2022/07/10 09:32:12;;;;;;;7.75;1.75;;;;;;;19.89;56.08;102855.78;5052756;28;20025;-82
2022/07/10 09:34:45;;;;;;;5.70;1.30;;;;;;;19.89;57.61;102862.03;5052574;28;20461;-81
2022/07/10 09:37:18;;;;;;;4.40;1.35;;;;;;;20.13;56.66;102860.59;5052390;28;20060;-84
2022/07/10 09:39:55;;;;;;;2.17;1.00;;;;;;;20.33;55.44;102847.78;5052406;28;20461;-84
2022/07/10 09:42:28;;;;;;;3.88;1.63;;;;;;;20.53;55.34;102853.84;5052360;28;20075;-79
2022/07/10 09:45:12;;;;;;;3.38;1.52;;;;;;;20.69;54.62;102849.59;5052436;28;20049;-83
2022/07/10 09:47:46;;;;;;;2.42;1.00;;;;;;;20.90;54.37;102843.84;5052538;28;20039;-81
2022/07/10 09:50:23;;;;;;;3.78;1.33;;;;;;;21.14;53.39;102846.69;5052457;28;20120;-80
2022/07/10 09:52:57;;;;;;;5.00;1.35;;;;;;;21.70;53.20;102843.56;5052370;28;20024;-85
2022/07/10 09:55:26;;;;;;;2.05;1.10;;;;;;;21.90;51.53;102844.16;5052258;28;20063;-84
2022/07/10 09:58:06;;;;;;;4.25;1.30;;;;;;;22.33;51.00;102844.06;5051987;28;20497;-81
2022/07/10 10:00:34;;;;;;;3.42;1.25;;;;;;;22.40;50.52;102847.78;5052742;28;20115;-81
2022/07/10 10:03:02;;;;;;;4.15;1.10;;;;;;;22.65;50.95;102842.38;5052056;28;20057;-81
2022/07/10 10:05:48;;;;;;;4.63;1.15;;;;;;;22.84;50.74;102846.56;5052100;28;20033;-81
2022/07/10 10:08:19;;;;;;;5.82;1.20;;;;;;;22.96;49.88;102839.78;5052120;28;20029;-78
2022/07/10 10:10:49;;;;;;;4.60;1.30;;;;;;;22.81;49.52;102831.50;5052597;28;20029;-81
2022/07/10 10:13:23;;;;;;;7.00;1.50;;;;;;;23.05;48.95;102833.31;5052157;28;20532;-76
2022/07/10 10:15:51;;;;;;;2.72;1.10;;;;;;;23.56;47.88;102829.41;5050372;28;20639;-77
2022/07/10 10:18:19;;;;;;;5.68;1.48;;;;;;;23.95;45.75;102831.25;5052107;28;20025;-76
2022/07/10 10:20:45;;;;;;;3.30;1.17;;;;;;;24.05;42.90;102833.72;5052074;28;20036;-77
2022/07/10 10:23:14;;;;;;;2.97;1.15;;;;;;;23.84;42.92;102828.88;5052234;28;20068;-77
2022/07/10 10:25:40;;;;;;;2.92;1.00;;;;;;;23.49;44.24;102831.97;5051539;28;20037;-79
2022/07/10 10:28:11;;;;;;;2.10;1.20;;;;;;;23.24;46.22;102823.94;5052102;28;20040;-81
2022/07/10 10:30:39;;;;;;;5.85;1.30;;;;;;;23.44;46.53;102823.53;5051536;28;20466;-81
2022/07/10 10:33:30;;;;;;;4.88;1.23;;;;;;;23.72;44.75;102820.28;5051674;28;20029;-78
2022/07/10 10:35:55;;;;;;;;;;;;;;;23.89;44.43;102827.38;5052269;28;20040;-79
2022/07/10 10:38:20;;;;;;;2.20;1.10;;;;;;;23.91;44.72;102822.59;5051779;28;19923;-75
2022/07/10 10:40:47;;;;;;;3.45;1.23;;;;;;;23.52;43.53;102814.47;5051802;28;20400;-75
2022/07/10 10:43:17;;;;;;;3.95;1.30;;;;;;;23.56;44.44;102815.81;5051647;28;20041;-77
2022/07/10 10:45:43;;;;;;;4.82;1.30;;;;;;;23.83;42.99;102821.78;5049827;28;20064;-77
2022/07/10 10:48:15;;;;;;;3.78;1.45;;;;;;;23.74;42.66;102823.69;5051327;28;20089;-78
2022/07/10 10:50:48;;;;;;;2.58;0.98;;;;;;;23.81;40.59;102819.25;5051760;28;20041;-76
2022/07/10 10:53:22;;;;;;;2.13;1.17;;;;;;;23.85;41.67;102819.72;5051552;28;20468;-78
2022/07/10 10:56:04;;;;;;;3.80;1.30;;;;;;;24.35;39.38;102810.19;5054986;28;20140;-77
2022/07/10 10:58:37;;;;;;;2.97;1.25;;;;;;;24.76;39.14;102811.72;5055678;28;20028;-76
2022/07/10 11:01:25;;;;;;;4.32;1.10;;;;;;;25.72;37.43;102813.59;5056215;28;20140;-87
2022/07/10 11:04:08;;;;;;;2.00;1.20;;;;;;;26.13;34.90;102813.84;5055611;28;20028;-78
2022/07/10 11:06:51;;;;;;;2.03;1.10;;;;;;;26.61;35.98;102818.66;5055400;28;20032;-77
2022/07/10 11:09:31;;;;;;;2.00;1.50;;;;;;;26.60;34.99;102811.50;5055777;28;20029;-78
2022/07/10 11:12:06;;;;;;;1.63;1.08;;;;;;;26.44;36.27;102807.19;5055329;28;20029;-77
2022/07/10 11:14:36;;;;;;;2.38;1.10;;;;;;;26.64;34.32;102810.06;5055184;28;20037;-77
2022/07/10 11:17:02;;;;;;;2.83;1.05;;;;;;;26.09;33.98;102798.06;5055281;28;20039;-78
2022/07/10 11:19:29;;;;;;;4.65;0.98;;;;;;;25.94;34.46;102793.50;5054777;28;20037;-76
2022/07/10 11:22:10;;;;;;;3.15;1.20;;;;;;;25.73;36.22;102791.59;5054703;28;20082;-86
2022/07/10 11:24:48;;;;;;;3.80;1.20;;;;;;;26.08;35.77;102791.78;5055175;28;20104;-83
2022/07/10 11:27:30;;;;;;;6.97;1.10;;;;;;;26.75;34.02;102795.03;5055551;28;20036;-78
2022/07/10 11:29:59;;;;;;;3.15;1.38;;;;;;;26.75;35.46;102778.66;5055091;28;20492;-79
2022/07/10 11:32:25;;;;;;;3.30;1.13;;;;;;;27.33;34.15;102775.59;5054730;28;20473;-78
2022/07/10 11:34:50;;;;;;;2.30;1.00;;;;;;;27.84;33.25;102778.88;5054936;28;20083;-77
2022/07/10 11:37:16;;;;;;;3.05;1.23;;;;;;;27.42;33.72;102788.06;5054821;28;20171;-80